Time;durP1;ratioP1;P1;durP2;ratioP2;P2;SDS_P1;SDS_P2;PMS_P1;PMS_P2;Temp;Humidity;BMP_temperature;BMP_pressure;BME280_temperature;BME280_humidity;BME280_pressure;Samples;Min_cycle;Max_cycle;Signal;HPM_P1;HPM_P2
2023/06/28 00:00:43;;;;;;;7.88;7.28;;;;;;;19.48;75.99;94691.59;5115398;28;20214;-69
2023/06/28 00:03:13;;;;;;;8.10;7.30;;;;;;;19.48;76.16;94697.19;5115258;28;20176;-69
2023/06/28 00:05:40;;;;;;;8.05;7.22;;;;;;;19.45;75.75;94695.22;5114603;28;20194;-69
2023/06/28 00:08:08;;;;;;;8.05;7.35;;;;;;;19.42;76.07;94696.84;5115465;28;20211;-68
2023/06/28 00:10:39;;;;;;;7.68;6.80;;;;;;;19.39;75.85;94683.72;5115354;28;20184;-68
2023/06/28 00:13:06;;;;;;;7.30;6.65;;;;;;;19.38;75.91;94684.91;5114755;28;20192;-68
2023/06/28 00:15:33;;;;;;;7.28;6.57;;;;;;;19.37;76.12;94685.34;5115219;28;20183;-68
2023/06/28 00:18:02;;;;;;;8.10;7.22;;;;;;;19.37;75.88;94682.53;5115596;28;20184;-68
2023/06/28 00:20:34;;;;;;;7.10;6.45;;;;;;;19.39;76.18;94680.09;5114071;28;20196;-68
2023/06/28 00:23:03;;;;;;;7.47;6.88;;;;;;;19.30;75.71;94680.63;5115511;28;20231;-68
2023/06/28 00:25:29;;;;;;;8.93;7.47;;;;;;;19.29;76.25;94675.47;5115305;28;20214;-68
2023/06/28 00:27:56;;;;;;;6.90;6.28;;;;;;;19.23;76.08;94683.50;5114301;28;20196;-68
2023/06/28 00:30:23;;;;;;;7.85;7.15;;;;;;;19.17;75.86;94685.97;5115235;28;20188;-68
2023/06/28 00:32:52;;;;;;;7.43;6.82;;;;;;;19.13;75.75;94684.41;5114282;28;20191;-68
2023/06/28 00:35:20;;;;;;;8.00;7.18;;;;;;;19.09;75.65;94684.47;5115237;28;20199;-68
2023/06/28 00:37:53;;;;;;;7.38;6.68;;;;;;;19.06;75.37;94690.88;5114257;28;20244;-68
2023/06/28 00:40:21;;;;;;;7.30;6.60;;;;;;;19.02;75.58;94690.13;5115188;28;20192;-68
2023/06/28 00:42:49;;;;;;;7.20;6.63;;;;;;;18.97;75.33;94687.81;5114186;28;20676;-69
2023/06/28 00:45:17;;;;;;;7.50;6.90;;;;;;;18.96;75.91;94698.19;5114761;28;20250;-69
2023/06/28 00:47:45;;;;;;;7.75;7.15;;;;;;;18.95;75.75;94690.22;5114940;28;20183;-69
2023/06/28 00:50:14;;;;;;;7.28;6.68;;;;;;;18.97;76.31;94694.19;5114797;28;20199;-69
2023/06/28 00:52:41;;;;;;;7.82;7.10;;;;;;;18.97;76.25;94690.59;5116330;28;20195;-69
2023/06/28 00:55:10;;;;;;;7.93;7.32;;;;;;;18.99;76.82;94690.97;5118922;28;20183;-69
2023/06/28 00:57:39;;;;;;;7.65;6.95;;;;;;;19.01;77.03;94685.75;5117784;28;20627;-69
2023/06/28 01:00:11;;;;;;;7.75;7.05;;;;;;;18.98;77.06;94687.38;5118664;28;20176;-69
2023/06/28 01:02:41;;;;;;;8.10;7.40;;;;;;;18.92;77.66;94691.84;5119253;28;20196;-69
2023/06/28 01:05:09;;;;;;;8.18;7.47;;;;;;;18.86;77.50;94699.09;5117642;28;20290;-69
2023/06/28 01:07:39;;;;;;;8.57;7.88;;;;;;;18.80;77.09;94699.97;5118777;28;20200;-69
2023/06/28 01:10:06;;;;;;;9.20;8.18;;;;;;;18.73;76.60;94698.03;5118094;28;20227;-69
2023/06/28 01:12:35;;;;;;;8.60;7.72;;;;;;;18.69;76.78;94698.03;5117666;28;20268;-69
2023/06/28 01:15:05;;;;;;;8.57;7.72;;;;;;;18.67;77.21;94699.69;5118581;28;20200;-69
2023/06/28 01:17:31;;;;;;;8.57;7.88;;;;;;;18.66;77.50;94690.47;5117452;28;20188;-69
2023/06/28 01:20:00;;;;;;;8.27;7.57;;;;;;;18.69;78.13;94697.25;5117366;28;20195;-69
2023/06/28 01:22:28;;;;;;;8.30;7.60;;;;;;;18.70;77.89;94691.25;5118483;28;20199;-69
2023/06/28 01:24:59;;;;;;;8.32;7.63;;;;;;;18.69;78.29;94695.25;5118145;28;20188;-69
2023/06/28 01:27:28;;;;;;;8.35;7.57;;;;;;;18.70;78.20;94691.25;5117945;28;20187;-69
2023/06/28 01:29:59;;;;;;;11.20;10.20;;;;;;;18.72;78.17;94694.44;5118024;28;20272;-73
2023/06/28 01:32:26;;;;;;;16.30;14.80;;;;;;;18.73;77.69;94693.22;5118061;28;20267;-69
2023/06/28 01:34:54;;;;;;;19.33;17.65;;;;;;;18.75;77.92;94692.84;5117172;28;20203;-69
2023/06/28 01:37:22;;;;;;;16.15;14.50;;;;;;;18.74;77.58;94692.03;5117707;28;20191;-69
2023/06/28 01:39:51;;;;;;;11.60;10.70;;;;;;;18.76;76.95;94700.78;5117872;28;20188;-69
2023/06/28 01:42:20;;;;;;;11.13;10.13;;;;;;;18.74;77.12;94702.44;5117889;28;20184;-69
2023/06/28 01:44:48;;;;;;;10.30;9.30;;;;;;;18.76;77.11;94697.22;5117594;28;20231;-69
2023/06/28 01:47:19;;;;;;;9.90;9.07;;;;;;;18.76;77.46;94702.78;5117416;28;20519;-68
2023/06/28 01:49:47;;;;;;;11.35;10.35;;;;;;;18.75;77.01;94699.22;5117645;28;20199;-68
2023/06/28 01:52:15;;;;;;;10.13;9.32;;;;;;;18.70;77.18;94704.41;5117825;28;20200;-68
2023/06/28 01:54:42;;;;;;;9.85;8.85;;;;;;;18.62;77.02;94708.50;5116678;28;20195;-68
2023/06/28 01:57:10;;;;;;;10.30;9.38;;;;;;;18.52;77.28;94710.97;5117563;28;20188;-68
2023/06/28 01:59:38;;;;;;;10.60;9.80;;;;;;;18.45;77.26;94705.47;5117490;28;20213;-68
2023/06/28 02:02:06;;;;;;;9.48;8.77;;;;;;;18.40;77.54;94700.31;5117254;28;20276;-69
2023/06/28 02:04:35;;;;;;;10.00;9.20;;;;;;;18.42;78.21;94705.50;5116550;28;20199;-68
2023/06/28 02:07:06;;;;;;;9.80;9.00;;;;;;;18.42;77.66;94703.50;5117317;28;20237;-68
2023/06/28 02:09:33;;;;;;;10.85;9.90;;;;;;;18.45;77.75;94711.03;5116334;28;20243;-68
2023/06/28 02:12:00;;;;;;;12.25;10.80;;;;;;;18.53;76.40;94709.78;5116346;28;20191;-68
2023/06/28 02:14:27;;;;;;;10.77;9.88;;;;;;;18.67;75.00;94717.22;5115998;28;20188;-68
2023/06/28 02:17:00;;;;;;;10.93;10.02;;;;;;;18.80;74.57;94723.09;5117061;28;20241;-68
2023/06/28 02:19:29;;;;;;;11.20;10.25;;;;;;;18.87;73.89;94730.63;5116503;28;20227;-68
2023/06/28 02:21:57;;;;;;;10.88;10.00;;;;;;;18.91;74.42;94718.19;5116772;28;20192;-68
2023/06/28 02:24:25;;;;;;;10.95;10.00;;;;;;;18.93;74.23;94726.97;5117066;28;20184;-68
2023/06/28 02:26:54;;;;;;;11.13;10.13;;;;;;;18.97;73.40;94730.50;5116232;28;20226;-68
2023/06/28 02:29:22;;;;;;;12.00;10.10;;;;;;;18.97;72.93;94736.09;5116220;28;20222;-68
2023/06/28 02:31:50;;;;;;;10.73;9.77;;;;;;;18.97;73.21;94730.50;5116935;28;20176;-68
2023/06/28 02:34:20;;;;;;;11.32;10.43;;;;;;;18.99;72.65;94725.31;5116792;28;20184;-69
2023/06/28 02:36:46;;;;;;;11.45;10.50;;;;;;;19.01;72.94;94730.47;5115825;28;20195;-68
2023/06/28 02:39:13;;;;;;;10.98;10.18;;;;;;;18.99;73.34;94730.91;5117009;28;20324;-69
2023/06/28 02:41:41;;;;;;;10.45;9.65;;;;;;;18.95;74.08;94724.56;5116204;28;20215;-68
2023/06/28 02:44:08;;;;;;;10.25;9.48;;;;;;;18.93;73.92;94726.19;5115786;28;20199;-68
2023/06/28 02:46:37;;;;;;;10.55;9.75;;;;;;;18.88;74.12;94730.22;5116593;28;20199;-68
2023/06/28 02:49:04;;;;;;;11.35;10.25;;;;;;;18.90;74.24;94729.81;5116306;28;20283;-68
2023/06/28 02:51:32;;;;;;;10.60;9.80;;;;;;;18.91;74.10;94723.00;5116457;28;20191;-68
2023/06/28 02:53:59;;;;;;;10.77;9.90;;;;;;;18.91;73.89;94723.78;5116380;28;20210;-68
2023/06/28 02:56:26;;;;;;;11.45;10.57;;;;;;;18.91;73.86;94729.38;5115547;28;20188;-68
2023/06/28 02:58:53;;;;;;;10.95;10.05;;;;;;;18.87;73.73;94716.66;5116375;28;20210;-69
2023/06/28 03:01:20;;;;;;;11.82;10.75;;;;;;;18.85;74.09;94733.06;5116318;28;20180;-72
2023/06/28 03:03:48;;;;;;;11.10;10.20;;;;;;;18.85;74.09;94735.84;5116203;28;20215;-71
2023/06/28 03:06:16;;;;;;;11.60;10.70;;;;;;;18.84;74.53;94735.03;5115262;28;20233;-71
2023/06/28 03:08:46;;;;;;;10.95;10.05;;;;;;;18.81;74.19;94735.06;5114877;28;20203;-71
2023/06/28 03:11:14;;;;;;;10.48;9.65;;;;;;;18.80;74.45;94739.88;5115211;28;20604;-72
2023/06/28 03:13:42;;;;;;;11.43;10.52;;;;;;;18.80;74.05;94741.88;5115002;28;20268;-72
2023/06/28 03:16:10;;;;;;;11.40;10.50;;;;;;;18.72;74.41;94741.94;5114494;28;20264;-71
2023/06/28 03:18:39;;;;;;;11.52;10.43;;;;;;;18.64;75.45;94734.81;5116002;28;20203;-71
2023/06/28 03:21:07;;;;;;;11.63;10.63;;;;;;;18.60;75.82;94727.69;5115169;28;20192;-72
2023/06/28 03:23:36;;;;;;;12.15;11.05;;;;;;;18.49;75.85;94725.75;5116052;28;20188;-71
2023/06/28 03:26:06;;;;;;;11.18;10.07;;;;;;;18.43;76.16;94724.59;5115209;28;20286;-71
2023/06/28 03:28:34;;;;;;;11.65;10.70;;;;;;;18.40;76.71;94724.63;5115902;28;20257;-71
2023/06/28 03:31:02;;;;;;;11.20;10.20;;;;;;;18.35;76.96;94725.09;5115072;28;20215;-72
2023/06/28 03:33:30;;;;;;;11.88;10.68;;;;;;;18.33;77.07;94727.50;5115022;28;20210;-71
2023/06/28 03:35:59;;;;;;;11.27;10.32;;;;;;;18.33;77.27;94727.50;5114987;28;20665;-74
2023/06/28 03:38:27;;;;;;;11.30;10.32;;;;;;;18.28;77.54;94723.16;5115700;28;20206;-69
2023/06/28 03:40:55;;;;;;;11.60;10.27;;;;;;;18.29;77.50;94730.31;5114964;28;20196;-68
2023/06/28 03:43:24;;;;;;;12.13;10.90;;;;;;;18.22;77.33;94722.00;5114448;28;20218;-69
2023/06/28 03:45:52;;;;;;;12.85;11.45;;;;;;;18.19;77.25;94731.19;5114289;28;20686;-68
2023/06/28 03:48:21;;;;;;;11.85;10.75;;;;;;;18.21;77.26;94726.78;5115852;28;20260;-68
2023/06/28 03:50:50;;;;;;;12.00;10.77;;;;;;;18.23;76.95;94723.59;5114282;28;20207;-69
2023/06/28 03:53:17;;;;;;;12.43;11.23;;;;;;;18.29;77.36;94722.72;5114830;28;20203;-68
2023/06/28 03:55:45;;;;;;;13.02;11.77;;;;;;;18.33;77.37;94728.28;5114747;28;20582;-69
2023/06/28 03:58:16;;;;;;;13.00;11.80;;;;;;;18.39;77.39;94725.84;5115611;28;20543;-68
2023/06/28 04:00:45;;;;;;;13.10;11.90;;;;;;;18.38;77.15;94721.47;5115672;28;20176;-68
2023/06/28 04:03:13;;;;;;;12.75;11.55;;;;;;;18.43;77.77;94710.66;5114697;28;20211;-69
2023/06/28 04:05:40;;;;;;;13.80;12.50;;;;;;;18.45;77.74;94713.84;5115532;28;20188;-69
2023/06/28 04:08:08;;;;;;;17.02;14.45;;;;;;;18.49;78.27;94720.19;5114219;28;20264;-68
2023/06/28 04:10:37;;;;;;;14.95;13.55;;;;;;;18.50;78.31;94732.13;5114913;28;20314;-69
2023/06/28 04:13:04;;;;;;;14.93;13.50;;;;;;;18.53;77.79;94729.31;5115439;28;20279;-69
2023/06/28 04:15:31;;;;;;;14.88;13.68;;;;;;;18.59;77.83;94728.84;5115479;28;20184;-68
2023/06/28 04:18:04;;;;;;;15.20;13.80;;;;;;;18.65;77.47;94732.81;5114542;28;20192;-68
2023/06/28 04:20:34;;;;;;;15.70;14.10;;;;;;;18.72;77.36;94730.75;5115024;28;20611;-68
2023/06/28 04:23:05;;;;;;;14.98;13.60;;;;;;;18.80;77.12;94731.47;5115491;28;20184;-68
2023/06/28 04:25:32;;;;;;;14.30;13.00;;;;;;;18.88;77.44;94735.81;5115574;28;20216;-68
2023/06/28 04:28:01;;;;;;;15.95;14.55;;;;;;;18.92;77.36;94733.78;5118212;28;20196;-68
2023/06/28 04:30:31;;;;;;;15.38;14.02;;;;;;;18.98;77.13;94734.09;5118068;28;20596;-68
2023/06/28 04:33:04;;;;;;;15.13;13.85;;;;;;;19.07;77.14;94728.03;5118447;28;20497;-68
2023/06/28 04:35:33;;;;;;;14.93;13.65;;;;;;;19.17;76.00;94729.91;5118215;28;20210;-68
2023/06/28 04:38:07;;;;;;;15.43;14.00;;;;;;;19.24;75.33;94727.84;5118226;28;20196;-68
2023/06/28 04:40:35;;;;;;;14.55;13.32;;;;;;;19.31;75.46;94720.56;5118259;28;20200;-68
2023/06/28 04:43:09;;;;;;;14.25;12.93;;;;;;;19.36;74.63;94726.50;5117525;28;20207;-68
2023/06/28 04:45:37;;;;;;;13.07;11.98;;;;;;;19.57;74.00;94725.44;5117855;28;20339;-68
2023/06/28 04:48:07;;;;;;;13.48;12.27;;;;;;;19.62;73.30;94727.78;5118956;28;20199;-68
2023/06/28 04:50:36;;;;;;;13.80;12.60;;;;;;;19.63;72.97;94732.16;5118742;28;20204;-68
2023/06/28 04:53:04;;;;;;;14.02;12.75;;;;;;;19.65;72.76;94740.16;5117551;28;20652;-68
2023/06/28 04:55:32;;;;;;;13.85;12.63;;;;;;;19.66;72.77;94744.53;5118524;28;20672;-68
2023/06/28 04:58:02;;;;;;;13.90;12.70;;;;;;;19.65;72.76;94745.75;5117892;28;20200;-68
2023/06/28 05:00:29;;;;;;;14.10;12.93;;;;;;;19.66;72.96;94750.91;5118688;28;20223;-68
2023/06/28 05:02:58;;;;;;;14.43;13.15;;;;;;;19.69;73.36;94749.28;5118979;28;20215;-68
2023/06/28 05:05:27;;;;;;;14.25;12.95;;;;;;;19.70;72.69;94757.25;5118083;28;20214;-68
2023/06/28 05:07:55;;;;;;;16.02;14.40;;;;;;;19.69;73.37;94747.28;5118520;28;20211;-68
2023/06/28 05:10:22;;;;;;;14.35;13.15;;;;;;;19.70;73.50;94750.88;5118583;28;20214;-68
2023/06/28 05:12:51;;;;;;;15.05;13.70;;;;;;;19.70;73.51;94745.28;5118266;28;20584;-68
2023/06/28 05:15:22;;;;;;;14.70;13.40;;;;;;;19.73;73.82;94752.03;5118585;28;20226;-68
2023/06/28 05:17:50;;;;;;;14.63;13.43;;;;;;;19.74;73.57;94748.81;5117590;28;20195;-68
2023/06/28 05:20:17;;;;;;;14.52;13.32;;;;;;;19.77;73.80;94753.56;5117559;28;20184;-68
2023/06/28 05:22:51;;;;;;;15.63;14.13;;;;;;;19.79;73.89;94747.53;5117656;28;20188;-68
2023/06/28 05:25:19;;;;;;;14.13;13.02;;;;;;;19.80;74.01;94755.53;5117106;28;20203;-68
2023/06/28 05:27:47;;;;;;;14.80;13.50;;;;;;;19.82;73.70;94750.28;5118097;28;20187;-68
2023/06/28 05:30:15;;;;;;;13.88;12.68;;;;;;;19.83;74.21;94751.09;5118307;28;20207;-68
2023/06/28 05:32:42;;;;;;;15.55;14.07;;;;;;;19.85;74.24;94751.47;5117164;28;20214;-68
2023/06/28 05:35:10;;;;;;;15.52;14.15;;;;;;;19.89;73.95;94743.81;5118087;28;20188;-68
2023/06/28 05:37:37;;;;;;;15.75;14.45;;;;;;;19.91;74.00;94738.59;5117124;28;20200;-69
2023/06/28 05:40:08;;;;;;;15.73;14.35;;;;;;;19.92;73.75;94745.78;5116419;28;20610;-71
2023/06/28 05:42:39;;;;;;;16.48;15.00;;;;;;;19.93;73.90;94753.75;5118089;28;20203;-68
2023/06/28 05:45:08;;;;;;;15.43;14.07;;;;;;;19.94;73.19;94751.75;5117551;28;20308;-68
2023/06/28 05:47:35;;;;;;;15.73;14.27;;;;;;;19.94;73.08;94749.75;5117943;28;20183;-68
2023/06/28 05:50:03;;;;;;;16.10;14.80;;;;;;;19.91;73.95;94755.38;5117229;28;20214;-68
2023/06/28 05:52:30;;;;;;;16.33;14.93;;;;;;;19.89;73.61;94750.19;5117744;28;20218;-68
2023/06/28 05:55:01;;;;;;;16.63;15.07;;;;;;;19.89;73.56;94750.19;5117813;28;20245;-68
2023/06/28 05:57:30;;;;;;;15.98;14.68;;;;;;;19.89;73.92;94755.00;5116731;28;20221;-68
2023/06/28 05:59:58;;;;;;;17.52;16.05;;;;;;;19.91;74.15;94761.00;5117535;28;20191;-68
2023/06/28 06:02:27;;;;;;;17.08;15.57;;;;;;;19.93;73.67;94758.53;5117020;28;20204;-68
2023/06/28 06:04:55;;;;;;;17.65;16.10;;;;;;;19.95;73.94;94756.13;5117338;28;20612;-68
2023/06/28 06:07:23;;;;;;;17.42;16.00;;;;;;;19.98;73.58;94752.50;5117492;28;20225;-68
2023/06/28 06:09:53;;;;;;;17.20;15.70;;;;;;;20.03;73.71;94751.22;5116350;28;20223;-68
2023/06/28 06:12:21;;;;;;;17.27;15.75;;;;;;;20.06;73.51;94747.56;5117353;28;20191;-68
2023/06/28 06:14:50;;;;;;;17.58;15.98;;;;;;;20.10;73.35;94745.53;5116798;28;20196;-68
2023/06/28 06:17:21;;;;;;;18.20;16.42;;;;;;;20.11;72.74;94747.88;5117231;28;20184;-68
2023/06/28 06:19:49;;;;;;;18.60;16.73;;;;;;;20.14;72.76;94749.06;5099730;28;20253;-68
2023/06/28 06:22:18;;;;;;;17.48;15.88;;;;;;;20.18;73.45;94741.38;5116805;28;20180;-68
2023/06/28 06:24:45;;;;;;;17.05;15.65;;;;;;;20.23;73.17;94754.13;5116515;28;20196;-68
2023/06/28 06:27:14;;;;;;;17.35;15.88;;;;;;;20.24;72.83;94745.31;5116152;28;20211;-68
2023/06/28 06:29:42;;;;;;;16.58;15.18;;;;;;;20.29;72.93;94747.63;5116961;28;20200;-68
2023/06/28 06:32:11;;;;;;;16.40;15.00;;;;;;;20.36;72.42;94743.91;5116923;28;20206;-68
2023/06/28 06:34:40;;;;;;;17.23;15.63;;;;;;;20.40;71.88;94744.66;5116068;28;20202;-68
2023/06/28 06:37:11;;;;;;;17.05;15.55;;;;;;;20.46;71.44;94747.78;5116832;28;20233;-68
2023/06/28 06:39:41;;;;;;;16.13;14.60;;;;;;;20.44;71.32;94746.19;5116667;28;20191;-68
2023/06/28 06:42:08;;;;;;;16.55;15.05;;;;;;;20.41;70.91;94749.06;5115990;28;20235;-68
2023/06/28 06:44:36;;;;;;;15.75;14.45;;;;;;;20.40;70.85;94747.44;5116029;28;20247;-69
2023/06/28 06:47:05;;;;;;;15.60;14.18;;;;;;;20.38;70.38;94744.31;5115843;28;20604;-70
2023/06/28 06:49:35;;;;;;;14.77;13.57;;;;;;;20.38;70.51;94747.88;5114602;28;20196;-73
2023/06/28 06:52:04;;;;;;;14.05;12.85;;;;;;;20.37;70.71;94737.09;5116482;28;20216;-70
2023/06/28 06:54:32;;;;;;;15.90;14.45;;;;;;;20.38;70.97;94742.28;5115912;28;20192;-69
2023/06/28 06:57:02;;;;;;;14.55;13.32;;;;;;;20.40;69.99;94739.84;5116160;28;20221;-70
2023/06/28 06:59:30;;;;;;;15.23;13.82;;;;;;;20.42;69.79;94740.22;5116384;28;20241;-69
2023/06/28 07:01:58;;;;;;;15.20;13.95;;;;;;;20.46;70.14;94739.38;5116367;28;20180;-71
2023/06/28 07:04:25;;;;;;;14.82;13.35;;;;;;;20.48;70.27;94746.16;5116387;27;20206;-71
2023/06/28 07:06:55;;;;;;;15.32;13.82;;;;;;;20.52;70.56;94743.31;5115519;28;20591;-73
2023/06/28 07:09:24;;;;;;;13.90;12.70;;;;;;;20.52;70.49;94743.31;5115315;28;20195;-69
2023/06/28 07:11:52;;;;;;;14.93;13.48;;;;;;;20.55;71.03;94748.03;5116122;28;20203;-69
2023/06/28 07:14:18;;;;;;;14.52;13.02;;;;;;;20.54;70.22;94743.66;5116162;28;20272;-68
2023/06/28 07:16:46;;;;;;;13.70;12.50;;;;;;;20.57;70.59;94740.81;5116267;28;20203;-68
2023/06/28 07:19:13;;;;;;;13.60;12.40;;;;;;;20.58;70.06;94742.38;5114850;28;20536;-69
2023/06/28 07:21:40;;;;;;;13.15;11.93;;;;;;;20.56;68.78;94742.03;5115111;28;20198;-69
2023/06/28 07:24:10;;;;;;;13.63;12.35;;;;;;;20.52;69.86;94746.91;5115466;28;20198;-69
2023/06/28 07:26:38;;;;;;;12.07;11.07;;;;;;;20.49;70.38;94739.31;5116016;28;20184;-69
2023/06/28 07:29:06;;;;;;;13.20;11.90;;;;;;;20.51;70.09;94745.28;5115127;28;20196;-69
2023/06/28 07:31:33;;;;;;;12.55;11.35;;;;;;;20.53;70.34;94740.06;5115448;28;20546;-69
2023/06/28 07:34:04;;;;;;;13.07;11.52;;;;;;;20.57;69.58;94742.81;5115783;28;20191;-69
2023/06/28 07:36:32;;;;;;;13.63;11.25;;;;;;;20.57;68.55;94743.59;5115230;28;20589;-69
2023/06/28 07:39:01;;;;;;;11.73;10.73;;;;;;;20.59;67.28;94746.00;5114904;28;20196;-69
2023/06/28 07:41:29;;;;;;;10.82;9.85;;;;;;;20.61;67.37;94746.34;5115808;28;20176;-69
2023/06/28 07:43:57;;;;;;;10.93;10.02;;;;;;;20.63;66.18;94750.31;5115720;28;20260;-69
2023/06/28 07:46:25;;;;;;;10.57;9.70;;;;;;;20.66;66.55;94740.25;5115023;28;20247;-69
2023/06/28 07:48:53;;;;;;;11.18;10.15;;;;;;;20.68;66.34;94747.03;5115640;28;20245;-69
2023/06/28 07:51:21;;;;;;;10.45;9.40;;;;;;;20.70;65.25;94743.81;5115517;28;20271;-69
2023/06/28 07:53:49;;;;;;;10.32;9.43;;;;;;;20.70;65.01;94745.78;5115524;28;20245;-69
2023/06/28 07:56:19;;;;;;;10.40;9.40;;;;;;;20.72;66.26;94746.16;5115296;28;20188;-69
2023/06/28 07:58:48;;;;;;;10.10;9.27;;;;;;;20.78;66.13;94750.06;5114667;28;20187;-69
2023/06/28 08:01:17;;;;;;;10.73;9.73;;;;;;;20.85;65.75;94749.97;5117551;28;20256;-69
2023/06/28 08:03:45;;;;;;;9.77;8.88;;;;;;;20.88;65.58;94751.91;5118920;28;20225;-69
2023/06/28 08:06:13;;;;;;;10.52;9.32;;;;;;;20.88;65.43;94749.91;5119311;28;20223;-69
2023/06/28 08:08:41;;;;;;;9.43;8.52;;;;;;;20.93;65.39;94745.81;5119727;28;20206;-69
2023/06/28 08:11:09;;;;;;;10.55;9.55;;;;;;;20.95;65.61;94746.16;5119476;28;20249;-69
2023/06/28 08:13:36;;;;;;;9.73;8.82;;;;;;;21.04;66.43;94743.59;5119594;28;20244;-69
2023/06/28 08:16:06;;;;;;;9.70;8.80;;;;;;;21.10;65.62;94739.06;5119020;28;20620;-69
2023/06/28 08:18:35;;;;;;;9.52;8.73;;;;;;;21.15;64.91;94740.59;5119507;28;20199;-68
2023/06/28 08:21:01;;;;;;;10.48;9.43;;;;;;;21.25;65.82;94739.59;5119473;28;20215;-68
2023/06/28 08:23:30;;;;;;;9.85;8.95;;;;;;;21.33;65.35;94743.88;5119381;28;20184;-69
2023/06/28 08:25:58;;;;;;;10.25;9.25;;;;;;;21.37;63.99;94738.19;5118481;28;20196;-69
2023/06/28 08:28:26;;;;;;;10.10;8.38;;;;;;;21.39;63.60;94735.75;5119555;28;20282;-69
2023/06/28 08:30:54;;;;;;;10.45;9.27;;;;;;;21.38;62.79;94734.94;5119609;28;20227;-69
2023/06/28 08:33:24;;;;;;;8.95;8.07;;;;;;;21.36;63.26;94725.41;5118042;28;20199;-69
2023/06/28 08:35:52;;;;;;;10.45;9.05;;;;;;;21.38;64.02;94720.91;5119198;28;20180;-69
2023/06/28 08:38:22;;;;;;;9.60;8.80;;;;;;;21.46;64.60;94723.56;5118295;28;20192;-69
2023/06/28 08:40:52;;;;;;;9.90;9.05;;;;;;;21.49;63.54;94719.91;5118798;28;20182;-69
2023/06/28 08:43:21;;;;;;;10.35;9.32;;;;;;;21.53;63.17;94715.03;5118053;28;20206;-69
2023/06/28 08:45:49;;;;;;;9.75;8.85;;;;;;;21.50;62.30;94719.50;5117601;28;20237;-69
2023/06/28 08:48:16;;;;;;;9.65;8.25;;;;;;;21.51;62.59;94720.28;5118906;28;20180;-69
2023/06/28 08:50:46;;;;;;;9.00;8.15;;;;;;;21.56;62.37;94722.56;5118979;28;20227;-69
2023/06/28 08:53:18;;;;;;;10.48;8.73;;;;;;;21.58;61.35;94717.34;5118991;28;20628;-69
2023/06/28 08:55:47;;;;;;;10.00;9.10;;;;;;;21.65;62.36;94719.19;5117588;28;20202;-69
2023/06/28 08:58:15;;;;;;;9.70;8.77;;;;;;;21.71;63.00;94712.63;5118419;28;20256;-69
2023/06/28 09:00:44;;;;;;;8.95;8.25;;;;;;;21.77;62.57;94710.13;5119153;28;20199;-69
2023/06/28 09:03:13;;;;;;;8.82;8.13;;;;;;;21.82;63.10;94716.03;5118607;28;20203;-69
2023/06/28 09:05:42;;;;;;;9.82;9.00;;;;;;;21.94;63.22;94716.56;5118533;28;20241;-69
2023/06/28 09:08:13;;;;;;;9.85;8.95;;;;;;;22.03;62.15;94708.31;5118723;28;20184;-69
2023/06/28 09:10:42;;;;;;;10.48;9.55;;;;;;;22.10;59.98;94699.75;5117479;28;20203;-69
2023/06/28 09:13:10;;;;;;;10.35;9.38;;;;;;;22.17;60.09;94699.59;5116566;28;20202;-69
2023/06/28 09:15:37;;;;;;;11.27;10.27;;;;;;;22.25;59.84;94706.63;5118329;28;20187;-69
2023/06/28 09:18:05;;;;;;;10.18;9.25;;;;;;;22.34;59.89;94708.84;5118086;28;20252;-69
2023/06/28 09:20:33;;;;;;;10.82;9.90;;;;;;;22.44;59.43;94693.75;5117317;28;20248;-68
2023/06/28 09:23:04;;;;;;;10.48;9.57;;;;;;;22.49;59.67;94693.22;5117427;28;20187;-68
2023/06/28 09:25:33;;;;;;;10.40;9.40;;;;;;;22.55;58.93;94690.69;5117420;28;20214;-69
2023/06/28 09:28:01;;;;;;;10.70;9.70;;;;;;;22.61;59.81;94682.50;5117955;28;20221;-69
2023/06/28 09:30:28;;;;;;;11.70;10.70;;;;;;;22.70;59.67;94682.66;5117439;28;20191;-68
2023/06/28 09:32:58;;;;;;;11.38;10.30;;;;;;;22.80;59.60;94685.19;5117719;28;20211;-68
2023/06/28 09:35:27;;;;;;;10.93;10.02;;;;;;;22.90;58.64;94693.78;5117458;28;20195;-69
2023/06/28 09:37:57;;;;;;;11.20;10.10;;;;;;;23.05;60.89;94697.81;5118273;28;20604;-69
2023/06/28 09:40:26;;;;;;;10.30;9.50;;;;;;;23.13;58.70;94689.97;5117845;28;20192;-69
2023/06/28 09:42:56;;;;;;;10.90;10.00;;;;;;;23.09;59.05;94692.88;5118337;28;20184;-69
2023/06/28 09:45:28;;;;;;;11.32;10.40;;;;;;;23.10;58.58;94690.88;5118118;28;20235;-69
2023/06/28 09:47:58;;;;;;;10.57;9.65;;;;;;;23.10;57.94;94699.31;5117987;28;20207;-69
2023/06/28 09:50:37;;;;;;;10.13;9.13;;;;;;;23.13;57.71;94682.34;5116993;28;20199;-68
2023/06/28 09:53:09;;;;;;;9.98;9.10;;;;;;;23.22;58.77;94690.13;5117900;28;20199;-69
2023/06/28 09:55:39;;;;;;;11.35;10.35;;;;;;;23.31;58.86;94690.25;5117738;28;20215;-69
2023/06/28 09:58:11;;;;;;;10.80;9.88;;;;;;;23.41;57.51;94692.00;5116681;28;20206;-69
2023/06/28 10:00:40;;;;;;;10.68;9.68;;;;;;;23.52;57.00;94686.06;5118022;28;20199;-70
2023/06/28 10:03:09;;;;;;;10.70;9.80;;;;;;;23.63;57.80;94688.56;5117546;28;20191;-70
2023/06/28 10:05:37;;;;;;;10.40;9.50;;;;;;;23.73;58.53;94681.88;5116587;28;20257;-69
2023/06/28 10:08:08;;;;;;;11.00;10.00;;;;;;;23.74;57.28;94675.78;5117618;28;20237;-69
2023/06/28 10:10:38;;;;;;;10.65;9.70;;;;;;;23.76;57.08;94675.34;5117439;28;20193;-69
2023/06/28 10:13:10;;;;;;;11.68;10.20;;;;;;;23.85;58.45;94677.47;5116572;28;20234;-69
2023/06/28 10:15:45;;;;;;;11.07;10.18;;;;;;;23.82;55.10;94684.00;5116393;28;20244;-69
2023/06/28 10:18:13;;;;;;;10.43;9.63;;;;;;;23.87;56.22;94670.16;5117643;28;20179;-69
2023/06/28 10:20:41;;;;;;;11.35;10.35;;;;;;;23.96;56.37;94675.13;5117218;28;20223;-69
2023/06/28 10:23:10;;;;;;;10.95;10.00;;;;;;;24.09;56.77;94667.47;5116779;28;20200;-69
2023/06/28 10:25:37;;;;;;;10.80;9.90;;;;;;;24.19;56.80;94657.91;5116694;28;20644;-69
2023/06/28 10:28:05;;;;;;;10.63;9.68;;;;;;;24.26;57.08;94671.75;5117325;28;20252;-69
2023/06/28 10:30:36;;;;;;;10.18;9.27;;;;;;;24.20;55.86;94669.97;5116337;28;20210;-69
2023/06/28 10:33:09;;;;;;;10.02;9.13;;;;;;;24.02;54.81;94667.69;5117166;28;20215;-69
2023/06/28 10:35:37;;;;;;;10.23;9.20;;;;;;;23.83;55.66;94661.03;5116990;28;20195;-69
2023/06/28 10:38:05;;;;;;;9.88;8.98;;;;;;;23.72;55.19;94669.81;5116929;28;20199;-69
2023/06/28 10:40:33;;;;;;;9.95;9.15;;;;;;;23.62;55.46;94670.09;5117009;28;20276;-69
2023/06/28 10:43:08;;;;;;;9.95;8.98;;;;;;;23.60;56.44;94664.91;5115800;28;20192;-69
2023/06/28 10:45:38;;;;;;;9.90;8.88;;;;;;;23.51;57.04;94673.22;5116094;28;20235;-69
2023/06/28 10:48:06;;;;;;;10.52;9.52;;;;;;;23.44;57.53;94673.44;5116662;28;20195;-69
2023/06/28 10:50:43;;;;;;;10.10;9.10;;;;;;;23.34;56.36;94672.50;5116178;28;20206;-69
2023/06/28 10:53:22;;;;;;;9.00;8.30;;;;;;;23.26;56.49;94674.72;5115677;28;20218;-69
2023/06/28 10:56:08;;;;;;;10.15;9.25;;;;;;;23.38;57.65;94661.94;5116151;28;20179;-69
2023/06/28 10:58:37;;;;;;;10.60;9.55;;;;;;;23.64;57.90;94667.63;5116517;28;20260;-69
2023/06/28 11:01:08;;;;;;;10.13;9.15;;;;;;;23.77;55.96;94672.06;5116014;28;20208;-69
2023/06/28 11:03:38;;;;;;;10.35;9.35;;;;;;;23.89;54.70;94675.34;5116081;28;20684;-69
2023/06/28 11:06:08;;;;;;;10.35;9.45;;;;;;;24.02;56.57;94673.34;5116351;28;20204;-69
2023/06/28 11:08:41;;;;;;;9.18;8.48;;;;;;;24.17;55.05;94676.50;5116330;28;20192;-69
2023/06/28 11:11:09;;;;;;;9.32;8.52;;;;;;;24.22;53.99;94676.72;5115202;28;20199;-69
2023/06/28 11:13:48;;;;;;;10.38;9.48;;;;;;;24.17;54.02;94680.09;5115731;28;20215;-69
2023/06/28 11:16:21;;;;;;;9.98;9.07;;;;;;;24.22;52.89;94679.53;5115484;28;20200;-69
2023/06/28 11:18:50;;;;;;;11.23;8.75;;;;;;;24.31;52.63;94673.22;5115368;28;20204;-70
2023/06/28 11:21:18;;;;;;;9.95;8.98;;;;;;;24.47;55.08;94663.84;5116359;28;20207;-69
2023/06/28 11:23:47;;;;;;;9.77;8.88;;;;;;;24.55;54.32;94665.22;5115999;28;20188;-69
2023/06/28 11:26:17;;;;;;;10.38;9.48;;;;;;;24.64;53.19;94673.75;5115710;28;20200;-69
2023/06/28 11:28:52;;;;;;;9.35;8.55;;;;;;;24.65;51.57;94675.31;5115570;28;20559;-69